M I D A S
Marine Information and Data Acquisition System
Tripno 1257 of the Zeeleeuw from 2007-02-15 09:01:34 to 2007-02-15 15:33:29
Back to CruiseResearch ActivitiesStationsMapUnderway DataData graphs

EquipmentUnitsComment
TimeDGPSUTC
LatitudeDGPSDM.mWGS84
LongitudeDGPSDM.mWGS84
TemperatureSBE03/SBE38deg celciusITS90
ConductivitySBE21S/mITS90
SalinitySBE21 Practical Salinity Units
ChlorophylAChelsea fluorimeterg/lCalibrated in Aceton
Missing or incorrect values are displayed as -999
Sea surface data collected by the RV Zeeleeuw from 2007-02-15 07:24:43 to 2007-02-15 15:42:20
Time Latitude Longitude Temperature Conductivity Salinity ChlorophylA
2007-02-15 07:25:48 51°13.598 2°56.094 15.2982 0.063443 0.35772 -2.871232
2007-02-15 07:26:47 51°13.598 2°56.094 15.2874 0.063341 0.357392 -2.871232
2007-02-15 07:27:48 51°13.599 2°56.094 15.281 0.063341 0.357377 -2.871232
2007-02-15 07:28:48 51°13.599 2°56.094 15.2736 0.063341 0.357509 -2.871232
2007-02-15 07:29:47 51°13.599 2°56.094 15.2716 0.063341 0.357619 -2.871232
2007-02-15 07:30:48 51°13.599 2°56.094 15.2698 0.063341 0.357729 -2.871232
2007-02-15 07:31:48 51°13.6 2°56.094 15.2691 0.063341 0.357832 -2.871232
2007-02-15 07:32:47 51°13.6 2°56.094 15.2665 0.063341 0.357942 -2.871232
2007-02-15 07:33:48 51°13.6 2°56.094 15.2649 0.063341 0.358052 -2.871232
2007-02-15 07:34:47 51°13.599 2°56.094 15.2594 0.063238 0.357562 -2.871232
2007-02-15 07:35:48 51°13.599 2°56.093 15.2477 0.063238 0.357672 -2.871232
2007-02-15 07:36:48 51°13.599 2°56.093 15.2555 0.063238 0.357789 -2.871232
2007-02-15 07:37:47 51°13.599 2°56.094 15.255 0.063238 0.357907 -2.871232
2007-02-15 07:38:48 51°13.598 2°56.094 15.2471 0.063238 0.35801 -2.871232
2007-02-15 07:39:47 51°13.598 2°56.094 15.2456 0.063238 0.358128 -2.871232
2007-02-15 07:40:47 51°13.599 2°56.094 15.2448 0.063135 0.357637 -2.871232
2007-02-15 07:41:48 51°13.598 2°56.093 15.2471 0.063135 0.357747 -2.871232
2007-02-15 07:42:47 51°13.598 2°56.093 15.2401 0.063135 0.357894 -2.871232
2007-02-15 07:43:48 51°13.598 2°56.093 15.2334 0.063135 0.358005 -2.871232
2007-02-15 07:44:48 51°13.597 2°56.093 15.2368 0.063135 0.358116 -2.871232
2007-02-15 07:45:47 51°13.599 2°56.094 15.237 0.063032 0.357631 -2.871232
2007-02-15 07:46:48 51°13.6 2°56.094 15.2303 0.063032 0.357742 -2.871232
2007-02-15 07:47:48 51°13.599 2°56.094 15.2243 0.063032 0.357875 -2.871232
2007-02-15 07:48:47 51°13.6 2°56.094 15.2203 0.063032 0.358015 -2.871232
2007-02-15 07:49:48 51°13.599 2°56.094 15.2205 0.063032 0.358133 -2.871232
2007-02-15 07:50:48 51°13.598 2°56.093 15.2226 0.063032 0.358252 -2.871232
2007-02-15 07:51:48 51°13.597 2°56.094 15.2224 0.063032 0.358363 -2.871232
2007-02-15 07:52:48 51°13.599 2°56.094 15.2198 0.063032 0.358474 -2.871232
2007-02-15 07:53:47 51°13.599 2°56.094 15.2141 0.063032 0.358585 -2.871232
2007-02-15 07:54:48 51°13.599 2°56.094 15.2184 0.062929 0.358099 -2.871232
2007-02-15 07:55:47 51°13.599 2°56.094 15.2171 0.062929 0.358225 -2.871232
2007-02-15 07:56:47 51°13.599 2°56.094 15.2037 0.062929 0.358344 -2.871232
2007-02-15 07:57:48 51°13.599 2°56.094 15.2134 0.062929 0.358463 -2.871232
2007-02-15 07:58:47 51°13.6 2°56.094 15.2172 0.062929 0.358574 -2.871232
2007-02-15 07:59:48 51°13.6 2°56.094 15.2232 0.062826 0.358088 -2.871232
2007-02-15 08:00:47 51°13.598 2°56.094 15.2151 0.062929 0.358812 -2.871232
2007-02-15 08:01:47 51°13.598 2°56.095 15.2235 0.062826 0.358333 -2.871232
2007-02-15 08:02:48 51°13.597 2°56.095 15.2219 0.062826 0.35846 -2.871232
2007-02-15 08:03:47 51°13.597 2°56.095 15.2147 0.062826 0.358586 -2.871232
2007-02-15 08:04:48 51°13.597 2°56.095 15.2219 0.062826 0.358713 -2.871232
2007-02-15 08:05:47 51°13.598 2°56.094 15.2169 0.062826 0.358847 -2.871232
2007-02-15 08:06:47 51°13.598 2°56.093 15.2217 0.062826 0.358974 -2.871232
2007-02-15 08:07:48 51°13.6 2°56.093 15.2142 0.062723 0.358501 -2.871232
2007-02-15 08:08:47 51°13.599 2°56.093 15.2181 0.062723 0.358628 -2.871232
2007-02-15 08:09:48 51°13.599 2°56.093 15.2204 0.062723 0.358762 -2.871232
2007-02-15 08:10:47 51°13.6 2°56.093 15.2178 0.062723 0.358897 -2.871232
2007-02-15 08:11:47 51°13.599 2°56.094 15.2177 0.062723 0.359017 -2.871232
2007-02-15 08:12:48 51°13.597 2°56.094 15.2242 0.062723 0.359151 -2.871232
2007-02-15 08:13:47 51°13.594 2°56.095 15.2264 0.062723 0.359316 -2.871232
2007-02-15 08:14:48 51°13.596 2°56.095 15.2245 0.06262 0.358857 -2.871232
2007-02-15 08:15:48 51°13.596 2°56.095 15.2245 0.062723 0.359617 -2.871232
2007-02-15 08:16:47 51°13.596 2°56.095 15.2294 0.06262 0.35915 -2.871232
2007-02-15 08:17:48 51°13.596 2°56.095 15.2332 0.06262 0.359278 -2.871232
2007-02-15 08:18:47 51°13.596 2°56.094 15.2329 0.06262 0.35939 -2.871232
2007-02-15 08:19:48 51°13.597 2°56.094 15.2317 0.06262 0.359495 -2.871232
2007-02-15 08:20:48 51°13.597 2°56.095 15.2336 0.06262 0.359638 -2.871232
2007-02-15 08:21:47 51°13.597 2°56.094 15.233 0.06262 0.359804 -2.871232
2007-02-15 08:22:48 51°13.597 2°56.094 15.2318 0.062517 0.359337 -2.871232
2007-02-15 08:23:47 51°13.597 2°56.095 15.2353 0.062517 0.359472 -2.871232
2007-02-15 08:24:47 51°13.596 2°56.095 15.2305 0.062517 0.3596 -2.871232
2007-02-15 08:25:48 51°13.597 2°56.094 15.2285 0.062517 0.359729 -2.871232
2007-02-15 08:26:47 51°13.598 2°56.094 15.2364 0.062415 0.359238 -2.871232
2007-02-15 08:27:48 51°13.598 2°56.094 15.2299 0.062415 0.359351 -2.871232
2007-02-15 08:28:48 51°13.597 2°56.094 15.2368 0.062415 0.359487 -2.871232
2007-02-15 08:29:47 51°13.598 2°56.095 15.2448 0.062415 0.359608 -2.871232
2007-02-15 08:30:48 51°13.598 2°56.094 15.242 0.062312 0.359116 -2.871232
2007-02-15 08:31:47 51°13.598 2°56.094 15.2265 0.062312 0.359237 -2.871232
2007-02-15 08:32:48 51°13.596 2°56.094 15.2421 0.062312 0.35935 -2.871232
2007-02-15 08:33:48 51°13.597 2°56.094 15.2474 0.062312 0.359471 -2.871232
2007-02-15 08:34:47 51°13.597 2°56.093 15.2441 0.062312 0.359585 -2.871232
2007-02-15 08:35:48 51°13.597 2°56.094 15.2483 0.062209 0.359093 -2.871232
2007-02-15 08:36:48 51°13.597 2°56.093 15.2511 0.062209 0.359214 -2.871232
2007-02-15 08:37:47 51°13.598 2°56.093 15.2552 0.062209 0.359335 -2.871232
2007-02-15 08:38:48 51°13.599 2°56.093 15.252 0.062209 0.359456 -2.871232
2007-02-15 08:39:48 51°13.598 2°56.093 15.2599 0.062209 0.35957 -2.871232
2007-02-15 08:40:47 51°13.599 2°56.093 15.2556 0.062106 0.359085 -2.871232
2007-02-15 08:41:48 51°13.598 2°56.093 15.2475 0.062106 0.359206 -2.871232
2007-02-15 08:42:48 51°13.599 2°56.093 15.2491 0.062106 0.359327 -2.871232
2007-02-15 08:43:48 51°13.599 2°56.093 15.2588 0.062106 0.359456 -2.871232
2007-02-15 08:44:48 51°13.598 2°56.093 15.2589 0.062003 0.35897 -2.871232
2007-02-15 08:45:47 51°13.598 2°56.094 15.2568 0.062003 0.359107 -2.871232
2007-02-15 08:46:48 51°13.598 2°56.093 15.257 0.062003 0.359244 -2.871232
2007-02-15 08:47:48 51°13.598 2°56.095 15.2555 0.062003 0.359373 -2.871232
2007-02-15 08:48:47 51°13.598 2°56.095 15.2524 0.0619 0.358894 -2.871232
2007-02-15 08:49:48 51°13.598 2°56.094 15.2541 0.0619 0.359031 -2.871232
2007-02-15 08:50:48 51°13.597 2°56.095 15.2505 0.0619 0.35916 -2.871232
2007-02-15 08:51:48 51°13.596 2°56.094 15.252 0.0619 0.359305 -2.871232
2007-02-15 08:52:48 51°13.595 2°56.095 15.2502 0.0619 0.359442 -2.871232
2007-02-15 08:53:47 51°13.596 2°56.097 15.2438 0.0619 0.359579 -2.871232
2007-02-15 08:54:48 51°13.596 2°56.097 15.2816 0.061797 0.359107 -2.871232
2007-02-15 08:55:47 51°13.597 2°56.096 15.27 0.061797 0.359244 -2.871232
2007-02-15 08:56:48 51°13.598 2°56.095 15.2669 0.061797 0.359382 -2.871232
2007-02-15 08:57:48 51°13.598 2°56.095 15.2683 0.061694 0.358909 -2.871232
2007-02-15 08:58:48 51°13.598 2°56.094 15.2446 0.061694 0.359046 -2.871232
2007-02-15 08:59:48 51°13.6 2°56.095 15.2545 0.061694 0.359168 -2.871232
2007-02-15 09:00:48 51°13.599 2°56.095 15.2631 0.061694 0.359337 -2.871232
2007-02-15 09:01:46 51°13.599 2°56.095 15.2586 0.061694 0.359467 -2.871232
2007-02-15 09:02:45 51°13.599 2°56.095 15.266 0.061591 0.358993 -2.871232
2007-02-15 09:03:44 51°13.599 2°56.095 15.2701 0.061591 0.359131 -2.871232
2007-02-15 09:04:44 51°13.599 2°56.09 15.2358 0.061591 0.359269 -2.871232
2007-02-15 09:05:48 51°13.619 2°56.015 15.2478 0.061591 0.359399 -2.871232
2007-02-15 09:06:48 51°13.651 2°55.92 15.2623 0.061591 0.359545 -2.871232
2007-02-15 09:07:47 51°13.682 2°55.835 15.2532 0.061488 0.359062 -2.871232
2007-02-15 09:08:45 51°13.696 2°55.767 15.2478 0.061488 0.359178 -2.871232
2007-02-15 09:09:44 51°13.703 2°55.716 15.2663 0.061488 0.359308 -2.871232
2007-02-15 09:10:44 51°13.718 2°55.728 15.3084 0.061488 0.359446 -2.871232
2007-02-15 09:11:44 51°13.771 2°55.713 15.3036 0.061488 0.359539 -2.871232
2007-02-15 09:12:44 51°13.857 2°55.626 15.1564 0.061386 0.359017 -2.871232
2007-02-15 09:13:44 51°13.98 2°55.529 15.1592 0.061386 0.359171 -2.871232
2007-02-15 09:14:47 51°14.129 2°55.419 15.1446 0.061386 0.359263 -2.871232
2007-02-15 09:15:47 51°14.276 2°55.239 15.1094 0.061386 0.359356 -2.871232
2007-02-15 09:16:46 51°14.417 2°55.009 14.9644 0.061386 0.359641 -2.871232
2007-02-15 09:17:44 51°14.58 2°54.786 15.1192 0.061386 0.359471 -2.871232
2007-02-15 09:18:44 51°14.688 2°54.49 14.947 0.061283 0.359072 -2.871232
2007-02-15 09:19:44 51°14.784 2°54.181 14.964 0.061283 0.359188 -2.871232
2007-02-15 09:20:44 51°14.884 2°53.873 14.942 0.061283 0.359272 -2.871232
2007-02-15 09:21:44 51°14.987 2°53.566 14.9267 0.061283 0.359411 -2.871232
2007-02-15 09:22:44 51°15.092 2°53.262 14.89 0.061283 0.35952 -2.871232
2007-02-15 09:23:44 51°15.198 2°52.959 14.8734 0.061283 0.359643 -2.871232
2007-02-15 09:24:44 51°15.3 2°52.656 14.9216 0.06118 0.359158 -2.871232
2007-02-15 09:25:44 51°15.332 2°52.326 14.8566 0.06118 0.359251 -2.871232
2007-02-15 09:26:44 51°15.349 2°51.993 14.8913 0.06118 0.359406 -2.871232
2007-02-15 09:27:44 51°15.344 2°51.661 14.89 0.06118 0.359522 -2.871232
2007-02-15 09:28:44 51°15.34 2°51.33 14.8901 0.06118 0.359669 -2.871232
2007-02-15 09:29:44 51°15.339 2°50.998 14.8461 0.06118 0.359808 -2.871232
2007-02-15 09:30:44 51°15.337 2°50.666 14.8873 0.061077 0.359315 -2.871232
2007-02-15 09:31:44 51°15.337 2°50.335 14.9193 0.061077 0.359462 -2.871232
2007-02-15 09:32:44 51°15.335 2°50.005 14.924 0.061077 0.359602 -2.871232
2007-02-15 09:33:44 51°15.334 2°49.674 14.8776 0.061077 0.359749 -2.871232
2007-02-15 09:34:44 51°15.334 2°49.343 14.9304 0.061077 0.359889 -2.871232
2007-02-15 09:35:44 51°15.335 2°49.012 14.9172 0.060974 0.359418 -2.871232
2007-02-15 09:36:44 51°15.336 2°48.68 14.8916 0.060974 0.35955 -2.871232
2007-02-15 09:37:44 51°15.335 2°48.348 14.9121 0.060974 0.35969 -2.871232
2007-02-15 09:38:44 51°15.333 2°48.014 14.9706 0.060974 0.359831 -2.871232
2007-02-15 09:39:44 51°15.331 2°47.679 14.9635 0.060974 0.359971 -2.871232
2007-02-15 09:40:44 51°15.33 2°47.346 14.9706 0.060974 0.360103 -2.871232
2007-02-15 09:41:44 51°15.33 2°47.016 14.9702 0.060871 0.359616 -2.871232
2007-02-15 09:42:44 51°15.33 2°46.688 14.9904 0.060871 0.359764 -2.871232
2007-02-15 09:43:44 51°15.33 2°46.359 14.9585 0.060871 0.359897 -2.871232
2007-02-15 09:44:44 51°15.33 2°46.03 15.0162 0.060768 0.359416 -2.871232
2007-02-15 09:45:44 51°15.33 2°45.701 15.0124 0.060768 0.359564 -2.871232
2007-02-15 09:46:44 51°15.332 2°45.372 15.0147 0.060768 0.359705 -2.871232
2007-02-15 09:47:44 51°15.333 2°45.041 15.0248 0.060768 0.359846 -2.871232
2007-02-15 09:48:44 51°15.335 2°44.711 15.0375 0.060768 0.359979 -2.871232
2007-02-15 09:49:44 51°15.336 2°44.38 15.0318 0.060768 0.36012 -2.871232
2007-02-15 09:50:44 51°15.336 2°44.05 15.0268 0.060665 0.359615 -2.871232
2007-02-15 09:51:44 51°15.337 2°43.719 15.0703 0.060665 0.35974 -2.871232
2007-02-15 09:52:44 51°15.34 2°43.389 15.0637 0.060665 0.359873 -2.871232
2007-02-15 09:53:44 51°15.342 2°43.059 15.0613 0.060562 0.359368 -2.871232
2007-02-15 09:54:44 51°15.343 2°42.728 15.0579 0.060562 0.359501 -2.871232
2007-02-15 09:55:44 51°15.343 2°42.396 15.0867 0.060562 0.359611 -2.871232
2007-02-15 09:56:44 51°15.404 2°42.076 15.1134 0.060562 0.359768 -2.871232
2007-02-15 09:57:44 51°15.485 2°41.763 15.1181 0.060562 0.359917 -2.871232
2007-02-15 09:58:44 51°15.564 2°41.445 15.1333 0.060459 0.359395 -2.871232
2007-02-15 09:59:44 51°15.642 2°41.127 15.1347 0.060459 0.359544 -2.871232
2007-02-15 10:00:44 51°15.72 2°40.808 15.1499 0.060459 0.359678 -2.871232
2007-02-15 10:01:44 51°15.753 2°40.479 15.1268 0.060459 0.359804 -2.871232
2007-02-15 10:02:44 51°15.736 2°40.151 15.1788 0.060459 0.359961 -2.871232
2007-02-15 10:03:44 51°15.721 2°39.821 15.1916 0.060357 0.35947 -2.871232
2007-02-15 10:04:44 51°15.707 2°39.492 15.1992 0.060357 0.359619 -2.871232
2007-02-15 10:05:44 51°15.692 2°39.161 15.2375 0.060357 0.359745 -2.871232
2007-02-15 10:06:44 51°15.676 2°38.83 15.219 0.060357 0.359887 -2.871232
2007-02-15 10:07:44 51°15.659 2°38.5 15.2321 0.060357 0.360014 -2.871232
2007-02-15 10:08:44 51°15.642 2°38.175 15.2523 0.060357 0.360156 -2.871232
2007-02-15 10:09:44 51°15.63 2°37.851 15.2565 0.060254 0.35964 -2.871232
2007-02-15 10:10:44 51°15.629 2°37.525 15.2915 0.060254 0.359774 -2.871232
2007-02-15 10:11:44 51°15.63 2°37.197 15.2857 0.060254 0.359908 -2.871232
2007-02-15 10:12:44 51°15.635 2°36.868 15.2915 0.060254 0.360035 -2.871232
2007-02-15 10:13:44 51°15.644 2°36.535 15.3234 0.060254 0.360169 -2.871232
2007-02-15 10:14:44 51°15.654 2°36.202 15.2754 0.060151 0.359668 -2.871232
2007-02-15 10:15:44 51°15.663 2°35.868 15.3163 0.060151 0.359787 -2.871232
2007-02-15 10:16:44 51°15.674 2°35.534 15.3018 0.060151 0.359914 -2.871232
2007-02-15 10:17:44 51°15.688 2°35.202 15.3483 0.060151 0.36004 -2.871232
2007-02-15 10:18:44 51°15.7 2°34.874 15.3613 0.060151 0.360175 -2.871232
2007-02-15 10:19:44 51°15.711 2°34.539 15.3607 0.060048 0.359665 -2.871232
2007-02-15 10:20:44 51°15.716 2°34.201 15.3863 0.060048 0.3598 -2.871232
2007-02-15 10:21:44 51°15.719 2°33.864 15.4069 0.060048 0.359919 -2.871232
2007-02-15 10:22:44 51°15.72 2°33.53 15.4197 0.060048 0.360046 -2.871232
2007-02-15 10:23:44 51°15.719 2°33.202 15.4379 0.060048 0.360174 -2.871232
2007-02-15 10:24:44 51°15.718 2°32.875 15.4451 0.059945 0.359655 -2.871232
2007-02-15 10:25:44 51°15.719 2°32.551 15.4477 0.059945 0.359782 -2.871232
2007-02-15 10:26:44 51°15.721 2°32.226 15.4442 0.059945 0.359901 -2.871232
2007-02-15 10:27:44 51°15.711 2°31.904 15.473 0.059945 0.360045 -2.871232
2007-02-15 10:28:44 51°15.59 2°31.687 15.4544 0.059842 0.359509 -2.871232
2007-02-15 10:29:44 51°15.466 2°31.613 15.5182 0.059842 0.359613 -2.871232
2007-02-15 10:30:44 51°15.38 2°31.516 15.5146 0.059842 0.35974 -2.871232
2007-02-15 10:31:44 51°15.262 2°31.373 15.5456 0.059842 0.359859 -2.871232
2007-02-15 10:32:44 51°15.135 2°31.224 15.5398 0.059842 0.359955 -2.871232
2007-02-15 10:33:44 51°15.007 2°31.077 15.5708 0.059842 0.360059 -2.871232
2007-02-15 10:34:44 51°14.908 2°30.968 15.5987 0.059739 0.359523 -2.871232
2007-02-15 10:35:44 51°14.843 2°30.907 15.6309 0.059739 0.359618 -2.871232
2007-02-15 10:36:44 51°14.797 2°30.845 15.6261 0.059739 0.359706 -2.871232
2007-02-15 10:37:44 51°14.747 2°30.768 15.6515 0.059739 0.359794 -2.871232
2007-02-15 10:38:44 51°14.697 2°30.677 15.6495 0.059739 0.359882 -2.871232
2007-02-15 10:39:44 51°14.646 2°30.582 15.6499 0.059739 0.35997 -2.871232
2007-02-15 10:40:44 51°14.607 2°30.473 15.6779 0.059636 0.359409 -2.871232
2007-02-15 10:41:44 51°14.571 2°30.374 15.712 0.059636 0.359488 -2.871232
2007-02-15 10:42:44 51°14.544 2°30.3 15.7089 0.059636 0.359576 -2.871232
2007-02-15 10:43:44 51°14.52 2°30.241 15.7132 0.059636 0.359664 -2.871232
2007-02-15 10:44:44 51°14.5 2°30.187 15.7117 0.059636 0.35976 -2.871232
2007-02-15 10:45:44 51°14.484 2°30.131 15.7356 0.059636 0.359856 -2.871232
2007-02-15 10:46:44 51°14.489 2°30.087 15.7262 0.059636 0.359944 -2.871232
2007-02-15 10:47:44 51°14.543 2°30.05 15.7136 0.059533 0.35943 -2.871232
2007-02-15 10:48:45 51°14.618 2°30.147 15.7529 0.059533 0.359478 -2.871232
2007-02-15 10:49:45 51°14.678 2°30.354 15.6116 0.059533 0.359574 -2.871232
2007-02-15 10:50:45 51°14.64 2°30.495 15.711 0.059533 0.359654 -2.871232
2007-02-15 10:51:44 51°14.609 2°30.551 15.733 0.059533 0.359727 -2.871232
2007-02-15 10:52:44 51°14.589 2°30.591 15.74 0.059533 0.359799 -2.871232
2007-02-15 10:53:44 51°14.568 2°30.579 15.775 0.059533 0.359887 -2.871232
2007-02-15 10:54:44 51°14.543 2°30.5 15.8201 0.059533 0.360007 -2.871232
2007-02-15 10:55:44 51°14.512 2°30.426 15.8296 0.05943 0.35946 -2.871232
2007-02-15 10:56:44 51°14.487 2°30.35 15.8468 0.05943 0.359557 -2.871232
2007-02-15 10:57:44 51°14.459 2°30.282 15.8586 0.05943 0.359661 -2.871232
2007-02-15 10:58:44 51°14.434 2°30.211 15.8703 0.05943 0.359765 -2.871232
2007-02-15 10:59:44 51°14.424 2°30.154 15.9045 0.05943 0.35987 -2.871232
2007-02-15 11:00:44 51°14.432 2°30.11 15.9 0.059328 0.359314 -2.871232
2007-02-15 11:01:44 51°14.461 2°30.084 15.9167 0.05943 0.360055 -2.871232
2007-02-15 11:02:44 51°14.512 2°30.087 15.9069 0.059328 0.359499 -2.871232
2007-02-15 11:03:44 51°14.613 2°30.149 15.8951 0.059328 0.359563 -2.871232
2007-02-15 11:04:44 51°14.736 2°30.342 15.9304 0.059328 0.35966 -2.871232
2007-02-15 11:05:44 51°14.766 2°30.513 15.9547 0.059328 0.359716 -2.871232
2007-02-15 11:06:45 51°14.768 2°30.631 15.9691 0.059328 0.359796 -2.871232
2007-02-15 11:07:45 51°14.745 2°30.722 15.9706 0.059328 0.359893 -2.871232
2007-02-15 11:08:45 51°14.701 2°30.699 16.0421 0.059225 0.359328 -2.871232
2007-02-15 11:09:45 51°14.649 2°30.587 16.0128 0.059225 0.359401 -2.871232
2007-02-15 11:10:45 51°14.59 2°30.477 16.0425 0.059225 0.359489 -2.871232
2007-02-15 11:11:45 51°14.529 2°30.369 16.0353 0.059225 0.359546 -2.871232
2007-02-15 11:12:45 51°14.483 2°30.274 16.0967 0.059225 0.359634 -2.871232
2007-02-15 11:13:44 51°14.448 2°30.213 16.1064 0.059225 0.359715 -2.871232
2007-02-15 11:14:45 51°14.419 2°30.192 16.0942 0.059225 0.359812 -2.871232
2007-02-15 11:15:45 51°14.397 2°30.21 16.0816 0.059225 0.359852 -2.871232
2007-02-15 11:16:45 51°14.385 2°30.187 16.1299 0.059225 0.359957 -2.871232
2007-02-15 11:17:45 51°14.423 2°30.148 16.0929 0.059122 0.359367 -2.871232
2007-02-15 11:18:45 51°14.503 2°30.206 16.0894 0.059122 0.35944 -2.871232
2007-02-15 11:19:44 51°14.584 2°30.452 16.0951 0.059122 0.35952 -2.871232
2007-02-15 11:20:44 51°14.72 2°30.736 16.1251 0.059122 0.359625 -2.871232
2007-02-15 11:21:44 51°14.845 2°31.056 16.1604 0.059122 0.359658 -2.871232
2007-02-15 11:22:45 51°14.971 2°31.398 16.1756 0.059122 0.35973 -2.871232
2007-02-15 11:23:44 51°15.076 2°31.742 16.1933 0.059122 0.359803 -2.871232
2007-02-15 11:24:44 51°15.174 2°32.095 16.1871 0.059122 0.359884 -2.871232
2007-02-15 11:25:44 51°15.255 2°32.391 16.2363 0.059122 0.359965 -2.871232
2007-02-15 11:26:44 51°15.33 2°32.659 16.2538 0.059122 0.360038 -2.871232
2007-02-15 11:27:44 51°15.393 2°32.923 16.201 0.059019 0.359479 -2.871232
2007-02-15 11:28:44 51°15.335 2°33.08 16.2458 0.059122 0.360208 -2.871232
2007-02-15 11:29:44 51°15.241 2°33.173 16.2867 0.059019 0.359641 -2.871232
2007-02-15 11:30:44 51°15.149 2°33.234 16.2477 0.059019 0.359746 -2.871232
2007-02-15 11:31:44 51°15.097 2°33.15 16.3272 0.059019 0.359787 -2.871232
2007-02-15 11:32:44 51°15.024 2°33.088 16.3199 0.059019 0.359933 -2.871232
2007-02-15 11:33:44 51°14.975 2°33.045 16.3555 0.059019 0.359981 -2.871232
2007-02-15 11:34:44 51°14.952 2°33.02 16.3801 0.059019 0.360046 -2.871232
2007-02-15 11:35:44 51°14.961 2°33.015 16.3696 0.059019 0.360127 -2.871232
2007-02-15 11:36:44 51°14.977 2°33.019 16.364 0.058916 0.359551 -2.871232
2007-02-15 11:37:44 51°14.994 2°33.027 16.3922 0.058916 0.359624 -2.871232
2007-02-15 11:38:44 51°15.012 2°33.039 16.4218 0.058916 0.359689 -2.871232
2007-02-15 11:39:44 51°15.032 2°33.053 16.416 0.058916 0.35977 -2.871232
2007-02-15 11:40:44 51°15.045 2°33.113 16.4428 0.058916 0.359843 -2.871232
2007-02-15 11:41:44 51°15.057 2°33.111 16.4528 0.058916 0.359925 -2.871232
2007-02-15 11:42:44 51°15.027 2°33.065 16.445 0.058916 0.359998 -2.871232
2007-02-15 11:43:44 51°14.98 2°33.052 16.4596 0.058916 0.360047 -2.871232
2007-02-15 11:44:44 51°14.958 2°33.024 16.4628 0.058813 0.359486 -2.871232
2007-02-15 11:45:44 51°14.956 2°33.013 16.477 0.058813 0.359583 -2.871232
2007-02-15 11:46:44 51°14.969 2°33.016 16.4934 0.058813 0.359648 -2.871232
2007-02-15 11:47:44 51°14.986 2°33.026 16.5037 0.058813 0.359722 -2.871232
2007-02-15 11:48:44 51°15.005 2°33.037 16.5195 0.058813 0.359795 -2.871232
2007-02-15 11:49:44 51°15.026 2°33.053 16.5275 0.058813 0.359868 -2.871232
2007-02-15 11:50:44 51°15.045 2°33.075 16.5306 0.058813 0.359958 -2.871232
2007-02-15 11:51:44 51°15.051 2°33.128 16.5513 0.058813 0.360031 -2.871232
2007-02-15 11:52:44 51°15.073 2°33.111 16.5894 0.058813 0.360104 -2.871232
2007-02-15 11:53:44 51°15.036 2°33.046 16.5649 0.058813 0.360137 -2.871232
2007-02-15 11:54:44 51°14.955 2°33.045 16.5391 0.058813 0.360137 -2.871232
2007-02-15 11:55:44 51°14.933 2°33.006 16.5644 0.05871 0.359518 -2.871232
2007-02-15 11:56:44 51°14.94 2°33.003 16.6046 0.05871 0.359575 -2.871232
2007-02-15 11:57:44 51°14.954 2°33.009 16.5828 0.05871 0.359608 -2.871232
2007-02-15 11:58:44 51°14.972 2°33.018 16.6145 0.05871 0.359648 -2.871232
2007-02-15 11:59:44 51°14.991 2°33.029 16.6217 0.05871 0.359697 -2.871232
2007-02-15 12:00:44 51°15.011 2°33.042 16.6339 0.05871 0.359754 -2.871232
2007-02-15 12:01:44 51°15.032 2°33.056 16.6525 0.05871 0.359803 -2.871232
2007-02-15 12:02:44 51°15.051 2°33.076 16.618 0.05871 0.359844 -2.871232
2007-02-15 12:03:48 51°15.054 2°33.138 16.6573 0.05871 0.35986 -2.871232
2007-02-15 12:04:46 51°15.069 2°33.088 16.6972 0.05871 0.359901 -2.871232
2007-02-15 12:05:44 51°15.013 2°33.06 16.623 0.05871 0.359893 -2.871232
2007-02-15 12:06:44 51°14.961 2°33.047 16.6796 0.05871 0.359885 -2.871232
2007-02-15 12:07:44 51°14.945 2°33.014 16.6764 0.05871 0.359901 -2.871232
2007-02-15 12:08:44 51°14.956 2°33.007 16.6853 0.05871 0.359926 -2.871232
2007-02-15 12:09:44 51°14.975 2°33.017 16.7259 0.05871 0.359966 -2.871232
2007-02-15 12:10:44 51°14.994 2°33.031 16.7236 0.05871 0.359999 -2.871232
2007-02-15 12:11:44 51°15.013 2°33.046 16.7319 0.05871 0.360048 -2.871232
2007-02-15 12:12:44 51°15.032 2°33.063 16.7513 0.05871 0.360089 -2.871232
2007-02-15 12:13:45 51°15.043 2°33.105 16.751 0.05871 0.36013 -2.871232
2007-02-15 12:14:45 51°15.061 2°33.109 16.758 0.05871 0.360179 -2.871232
2007-02-15 12:15:44 51°15.051 2°33.045 16.7827 0.05871 0.360261 -2.871232
2007-02-15 12:16:44 51°15.002 2°33.069 16.7401 0.05871 0.360285 -2.871232
2007-02-15 12:17:44 51°14.963 2°33.074 16.7623 0.05871 0.360334 -2.871232
2007-02-15 12:18:44 51°14.949 2°33.037 16.7896 0.058607 0.359738 -2.871232
2007-02-15 12:19:44 51°14.94 2°33.009 16.8087 0.058607 0.359812 -2.871232
2007-02-15 12:20:44 51°14.946 2°33.002 16.818 0.058607 0.359869 -2.871232
2007-02-15 12:21:44 51°14.96 2°33.005 16.8225 0.058607 0.359918 -2.871232
2007-02-15 12:22:44 51°14.979 2°33.018 16.8325 0.058607 0.359976 -2.871232
2007-02-15 12:23:44 51°14.997 2°33.036 16.8378 0.058607 0.360025 -2.871232
2007-02-15 12:24:44 51°15.015 2°33.053 16.8462 0.058607 0.360074 -2.871232
2007-02-15 12:25:44 51°15.032 2°33.069 16.8532 0.058607 0.360123 -2.871232
2007-02-15 12:26:45 51°15.051 2°33.084 16.8678 0.058607 0.36018 -2.871232
2007-02-15 12:27:45 51°15.074 2°33.076 16.8964 0.058607 0.360229 -2.871232
2007-02-15 12:28:45 51°15.072 2°32.901 16.8556 0.058607 0.360303 -2.871232
2007-02-15 12:29:45 51°14.965 2°32.621 16.8445 0.058607 0.360344 -2.871232
2007-02-15 12:30:45 51°14.844 2°32.343 16.8486 0.058607 0.360385 -2.871232
2007-02-15 12:31:45 51°14.726 2°32.063 16.907 0.058504 0.359788 -2.871232
2007-02-15 12:32:45 51°14.611 2°31.782 16.8982 0.058607 0.3605 -2.871232
2007-02-15 12:33:45 51°14.495 2°31.502 16.9182 0.058607 0.360541 -2.871232
2007-02-15 12:34:45 51°14.398 2°31.206 16.8735 0.058607 0.360582 -2.871232
2007-02-15 12:35:45 51°14.326 2°30.892 16.877 0.058504 0.359969 -2.871232
2007-02-15 12:36:45 51°14.296 2°30.56 16.9112 0.058504 0.36001 -2.871232
2007-02-15 12:37:45 51°14.321 2°30.319 16.9592 0.058504 0.360051 -2.871232
2007-02-15 12:38:45 51°14.331 2°30.22 16.9206 0.058504 0.360092 -2.871232
2007-02-15 12:39:45 51°14.352 2°30.216 16.9704 0.058504 0.360133 -2.871232
2007-02-15 12:40:45 51°14.376 2°30.227 16.9803 0.058504 0.360174 -2.871232
2007-02-15 12:41:45 51°14.403 2°30.239 16.9503 0.058504 0.360215 -2.871232
2007-02-15 12:42:45 51°14.421 2°30.263 16.9778 0.058504 0.360256 -2.871232
2007-02-15 12:43:48 51°14.373 2°30.334 16.9679 0.058504 0.360289 -2.871232
2007-02-15 12:44:46 51°14.371 2°30.363 16.9834 -999 -999 -2.3993
2007-02-15 12:45:45 51°14.396 2°30.398 17.0053 0.058504 0.360363 -2.871232
2007-02-15 12:46:45 51°14.42 2°30.429 17.0149 0.058504 0.360428 -2.871232
2007-02-15 12:47:45 51°14.442 2°30.458 17.0105 0.058504 0.360469 -2.871232
2007-02-15 12:48:45 51°14.463 2°30.487 17.0333 0.058504 0.360502 -2.871232
2007-02-15 12:49:45 51°14.482 2°30.513 17.0437 0.058504 0.360544 -2.871232
2007-02-15 12:50:45 51°14.501 2°30.537 17.0597 0.058401 0.359937 -2.871232
2007-02-15 12:51:44 51°14.52 2°30.558 17.0502 0.058401 0.359978 -2.871232
2007-02-15 12:52:45 51°14.539 2°30.579 17.0623 0.058401 0.360019 -2.871232
2007-02-15 12:53:45 51°14.559 2°30.598 17.0646 0.058401 0.36006 -2.871232
2007-02-15 12:54:45 51°14.579 2°30.617 17.0573 0.058401 0.360101 -2.871232
2007-02-15 12:55:45 51°14.599 2°30.636 17.0998 0.058401 0.360126 -2.871232
2007-02-15 12:56:45 51°14.618 2°30.662 17.0814 0.058401 0.360159 -2.871232
2007-02-15 12:57:45 51°14.614 2°30.711 17.0906 0.058401 0.360192 -2.871232
2007-02-15 12:58:45 51°14.583 2°30.717 17.1258 0.058401 0.360225 -2.871232
2007-02-15 12:59:45 51°14.57 2°30.685 17.1183 0.058504 0.360914 -2.871232
2007-02-15 13:00:45 51°14.561 2°30.655 17.1412 0.058401 0.360307 -2.871232
2007-02-15 13:01:45 51°14.553 2°30.633 17.1448 0.058401 0.36034 -2.871232
2007-02-15 13:02:45 51°14.546 2°30.613 17.1277 0.058401 0.360365 -2.871232
2007-02-15 13:03:45 51°14.54 2°30.594 17.1351 0.058401 0.360398 -2.871232
2007-02-15 13:04:45 51°14.534 2°30.574 17.1691 0.058916 0.363723 -2.871232
2007-02-15 13:05:45 51°14.529 2°30.554 17.158 0.058401 0.360464 -2.871232
2007-02-15 13:06:45 51°14.525 2°30.533 17.1819 0.058401 0.360488 -2.871232
2007-02-15 13:07:45 51°14.522 2°30.512 17.1798 0.058401 0.360521 -2.871232
2007-02-15 13:08:45 51°14.521 2°30.491 17.1997 0.058401 0.360546 -2.871232
2007-02-15 13:09:45 51°14.521 2°30.469 17.1876 0.058299 0.359914 -2.871232
2007-02-15 13:10:45 51°14.523 2°30.445 17.2014 0.058401 0.360596 -2.871232
2007-02-15 13:11:45 51°14.524 2°30.424 17.2162 0.058401 0.360629 -2.871232
2007-02-15 13:12:45 51°14.526 2°30.401 17.2347 0.058299 0.359996 -2.871232
2007-02-15 13:13:45 51°14.532 2°30.378 17.215 0.058401 0.360686 -2.871232
2007-02-15 13:14:45 51°14.542 2°30.362 17.2459 0.058401 0.360719 -2.871232
2007-02-15 13:15:45 51°14.556 2°30.355 17.2526 0.058401 0.360744 -2.871232
2007-02-15 13:16:45 51°14.572 2°30.352 17.2513 0.058401 0.360785 -2.871232
2007-02-15 13:17:45 51°14.591 2°30.351 17.2633 0.058299 0.360169 -2.871232
2007-02-15 13:18:45 51°14.61 2°30.351 17.2686 0.058299 0.360202 -2.871232
2007-02-15 13:19:45 51°14.631 2°30.354 17.2555 0.058299 0.360244 -2.871232
2007-02-15 13:20:45 51°14.654 2°30.358 17.2867 0.058299 0.360285 -2.871232
2007-02-15 13:21:45 51°14.676 2°30.365 17.2901 0.058299 0.360326 -2.871232
2007-02-15 13:22:45 51°14.7 2°30.372 17.2985 0.058299 0.360367 -2.871232
2007-02-15 13:23:45 51°14.724 2°30.375 17.2947 0.058299 0.360409 -2.871232
2007-02-15 13:24:45 51°14.744 2°30.363 17.2864 0.058299 0.36045 -2.871232
2007-02-15 13:25:45 51°14.757 2°30.344 17.2966 0.058299 0.360491 -2.871232
2007-02-15 13:26:45 51°14.763 2°30.327 17.3173 0.058299 0.360516 -2.871232
2007-02-15 13:27:45 51°14.765 2°30.315 17.3043 0.058299 0.360549 -2.871232
2007-02-15 13:28:45 51°14.764 2°30.312 17.3248 0.058299 0.36059 -2.871232
2007-02-15 13:29:45 51°14.759 2°30.315 17.3139 0.058299 0.360615 -2.871232
2007-02-15 13:30:45 51°14.751 2°30.319 17.334 0.058299 0.360656 -2.871232
2007-02-15 13:31:45 51°14.745 2°30.309 17.3437 0.058299 0.36069 -2.871232
2007-02-15 13:32:45 51°14.742 2°30.29 17.3351 0.058299 0.360731 -2.871232
2007-02-15 13:33:45 51°14.738 2°30.278 17.3492 0.058299 0.360764 -2.871232
2007-02-15 13:34:45 51°14.732 2°30.276 17.3583 0.058299 0.360789 -2.871232
2007-02-15 13:35:45 51°14.724 2°30.281 17.3688 0.058196 0.360155 -2.871232
2007-02-15 13:36:45 51°14.714 2°30.289 17.352 0.058299 0.360838 -2.871232
2007-02-15 13:37:45 51°14.702 2°30.299 17.3636 0.058299 0.360872 -2.871232
2007-02-15 13:38:45 51°14.688 2°30.309 17.376 0.058196 0.360254 -2.871232
2007-02-15 13:39:45 51°14.673 2°30.316 17.3745 0.058299 0.360946 -2.871232
2007-02-15 13:40:45 51°14.657 2°30.323 17.3788 0.058299 0.360988 -2.871232
2007-02-15 13:41:45 51°14.639 2°30.331 17.3983 0.058196 0.36037 -2.871232
2007-02-15 13:42:45 51°14.619 2°30.338 17.4031 0.058196 0.360403 -2.871232
2007-02-15 13:43:45 51°14.599 2°30.341 17.3946 0.058196 0.360444 -2.871232
2007-02-15 13:44:45 51°14.579 2°30.339 17.3989 0.058196 0.360486 -2.871232
2007-02-15 13:45:45 51°14.559 2°30.331 17.4018 0.058196 0.360519 -2.871232
2007-02-15 13:46:45 51°14.548 2°30.322 17.4281 0.058196 0.360552 -2.871232
2007-02-15 13:47:45 51°14.546 2°30.316 17.4267 0.058196 0.360585 -2.871232
2007-02-15 13:48:45 51°14.553 2°30.309 17.4341 0.058196 0.360618 -2.871232
2007-02-15 13:49:45 51°14.566 2°30.301 17.4419 0.058196 0.360652 -2.871232
2007-02-15 13:50:45 51°14.583 2°30.295 17.4401 0.058196 0.360676 -2.871232
2007-02-15 13:51:45 51°14.602 2°30.292 17.4132 0.058196 0.36071 -2.871232
2007-02-15 13:52:45 51°14.622 2°30.291 17.4319 0.058196 0.360734 -2.871232
2007-02-15 13:53:45 51°14.641 2°30.292 17.4304 0.058196 0.360768 -2.871232
2007-02-15 13:54:45 51°14.66 2°30.294 17.4786 0.058196 0.360792 -2.871232
2007-02-15 13:55:45 51°14.679 2°30.294 17.4637 0.058196 0.360826 -2.871232
2007-02-15 13:56:45 51°14.697 2°30.295 17.4629 0.058196 0.360859 -2.871232
2007-02-15 13:57:45 51°14.716 2°30.295 17.445 0.058196 0.360892 -2.871232
2007-02-15 13:58:45 51°14.735 2°30.297 17.4836 0.058196 0.360917 -2.871232
2007-02-15 13:59:45 51°14.757 2°30.284 17.4746 0.058196 0.36095 -2.871232
2007-02-15 14:00:45 51°14.778 2°30.237 17.4564 0.058196 0.360983 -2.871232
2007-02-15 14:01:45 51°14.796 2°30.196 17.4698 0.058196 0.361008 -2.871232
2007-02-15 14:02:45 51°14.811 2°30.169 17.4885 0.058093 0.360373 -2.871232
2007-02-15 14:03:45 51°14.826 2°30.15 17.4602 0.058196 0.361066 -2.871232
2007-02-15 14:04:45 51°14.84 2°30.137 17.4995 0.058196 0.361091 -2.871232
2007-02-15 14:05:45 51°14.856 2°30.126 17.4962 0.058093 0.360464 -2.871232
2007-02-15 14:06:45 51°14.866 2°30.082 17.4801 0.058093 0.360497 -2.871232
2007-02-15 14:07:45 51°14.862 2°30.01 17.4988 0.058196 0.361183 -2.871232
2007-02-15 14:08:45 51°14.851 2°29.941 17.5287 0.058093 0.360564 -2.871232
2007-02-15 14:09:45 51°14.847 2°29.897 17.5078 0.058093 0.360589 -2.871232
2007-02-15 14:10:45 51°14.85 2°29.868 17.5195 0.058093 0.360622 -2.871232
2007-02-15 14:11:45 51°14.858 2°29.847 17.5204 0.058093 0.360655 -2.871232
2007-02-15 14:12:45 51°14.868 2°29.831 17.5176 0.058093 0.36068 -2.871232
2007-02-15 14:13:45 51°14.839 2°29.81 17.5195 0.058093 0.360738 -2.871232
2007-02-15 14:14:45 51°14.814 2°29.877 17.5053 0.058196 0.361391 -2.871232
2007-02-15 14:15:45 51°14.814 2°29.939 17.5163 0.058093 0.36073 -2.871232
2007-02-15 14:16:45 51°14.817 2°29.998 17.518 0.058093 0.360755 -2.871232
2007-02-15 14:17:45 51°14.83 2°30.061 17.5215 0.058093 0.360788 -2.871232
2007-02-15 14:18:45 51°14.915 2°30.228 17.4734 0.058093 0.360821 -2.871232
2007-02-15 14:19:45 51°15.061 2°30.504 17.5016 0.058093 0.36083 -2.871232
2007-02-15 14:20:44 51°15.207 2°30.782 17.5162 0.058093 0.360846 -2.871232
2007-02-15 14:21:45 51°15.354 2°31.07 17.4162 0.058093 0.360863 -2.871232
2007-02-15 14:22:45 51°15.498 2°31.352 17.4234 0.058093 0.360879 -2.871232
2007-02-15 14:23:44 51°15.638 2°31.629 17.4277 0.058093 0.360904 -2.871232
2007-02-15 14:24:45 51°15.778 2°31.916 17.3944 0.058093 0.360921 -2.871232
2007-02-15 14:25:45 51°15.827 2°32.251 17.5187 0.058093 0.360963 -2.871232
2007-02-15 14:26:45 51°15.766 2°32.565 17.5189 0.058093 0.360988 -2.871232
2007-02-15 14:27:44 51°15.715 2°32.885 17.5443 0.058093 0.361038 -2.871232
2007-02-15 14:28:45 51°15.693 2°33.232 17.5254 0.058093 0.361063 -2.871232
2007-02-15 14:29:45 51°15.673 2°33.58 17.5272 0.058093 0.361096 -2.871232
2007-02-15 14:30:45 51°15.654 2°33.933 17.525 0.058093 0.361137 -2.871232
2007-02-15 14:31:45 51°15.637 2°34.288 17.5196 0.058093 0.361171 -2.871232
2007-02-15 14:32:45 51°15.625 2°34.646 17.5178 0.058093 0.361212 -2.871232
2007-02-15 14:33:45 51°15.611 2°35.001 17.5017 0.058093 0.361246 -2.871232
2007-02-15 14:34:44 51°15.586 2°35.349 17.5258 0.058093 0.361287 -2.871232
2007-02-15 14:35:45 51°15.563 2°35.712 17.5131 0.058093 0.361329 -2.871232
2007-02-15 14:36:45 51°15.537 2°36.068 17.5164 0.05799 0.360717 -2.871232
2007-02-15 14:37:45 51°15.512 2°36.422 17.5034 0.05799 0.360759 -2.871232
2007-02-15 14:38:45 51°15.489 2°36.771 17.5304 0.05799 0.3608 -2.871232
2007-02-15 14:39:45 51°15.462 2°37.116 17.5084 0.05799 0.360842 -2.871232
2007-02-15 14:40:45 51°15.427 2°37.458 17.5289 0.05799 0.360875 -2.871232
2007-02-15 14:41:45 51°15.393 2°37.799 17.5224 0.05799 0.360917 -2.871232
2007-02-15 14:42:45 51°15.359 2°38.141 17.5195 0.05799 0.36095 -2.871232
2007-02-15 14:43:44 51°15.326 2°38.482 17.5352 0.05799 0.360992 -2.871232
2007-02-15 14:44:45 51°15.289 2°38.837 17.5162 0.05799 0.361034 -2.871232
2007-02-15 14:45:45 51°15.255 2°39.187 17.533 0.05799 0.361076 -2.871232
2007-02-15 14:46:45 51°15.217 2°39.536 17.5322 0.05799 0.361109 -2.871232
2007-02-15 14:47:45 51°15.183 2°39.882 17.5427 0.05799 0.361159 -2.871232
2007-02-15 14:48:45 51°15.144 2°40.225 17.5351 0.05799 0.361201 -2.871232
2007-02-15 14:49:45 51°15.107 2°40.566 17.5367 0.05799 0.361243 -2.871232
2007-02-15 14:50:44 51°15.07 2°40.899 17.5497 0.05799 0.361284 -2.871232
2007-02-15 14:51:45 51°15.032 2°41.244 17.5331 0.057887 0.360663 -2.871232
2007-02-15 14:52:44 51°14.993 2°41.581 17.5422 0.057887 0.360713 -2.871232
2007-02-15 14:53:45 51°14.954 2°41.931 17.5276 0.057887 0.360746 -2.871232
2007-02-15 14:54:45 51°14.915 2°42.272 17.535 0.057887 0.360788 -2.871232
2007-02-15 14:55:45 51°14.884 2°42.614 17.5571 0.057887 0.360821 -2.871232
2007-02-15 14:56:45 51°14.875 2°42.961 17.552 0.057887 0.360855 -2.871232
2007-02-15 14:57:45 51°14.867 2°43.31 17.5437 0.057887 0.360897 -2.871232
2007-02-15 14:58:45 51°14.856 2°43.659 17.57 0.057887 0.360938 -2.871232
2007-02-15 14:59:44 51°14.857 2°44.003 17.5485 0.057887 0.360972 -2.871232
2007-02-15 15:00:45 51°14.859 2°44.36 17.5701 0.057887 0.361014 -2.871232
2007-02-15 15:01:45 51°14.862 2°44.707 17.5546 0.057887 0.361064 -2.871232
2007-02-15 15:02:45 51°14.865 2°45.055 17.558 0.057887 0.361106 -2.871232
2007-02-15 15:03:45 51°14.866 2°45.402 17.5751 0.057887 0.361147 -2.871232
2007-02-15 15:04:45 51°14.87 2°45.749 17.5613 0.057784 0.360525 -2.871232
2007-02-15 15:05:45 51°14.874 2°46.093 17.5686 0.057784 0.360559 -2.871232
2007-02-15 15:06:45 51°14.878 2°46.436 17.575 0.057784 0.360592 -2.871232
2007-02-15 15:07:45 51°14.873 2°46.78 17.5931 0.057784 0.360634 -2.871232
2007-02-15 15:08:44 51°14.864 2°47.126 17.5836 0.057784 0.360667 -2.871232
2007-02-15 15:09:45 51°14.852 2°47.482 17.5985 0.057784 0.360709 -2.871232
2007-02-15 15:10:45 51°14.833 2°47.829 17.6047 0.057784 0.360751 -2.871232
2007-02-15 15:11:45 51°14.831 2°48.175 17.5845 0.057784 0.360784 -2.871232
2007-02-15 15:12:45 51°14.83 2°48.52 17.6048 0.057784 0.360826 -2.871232
2007-02-15 15:13:45 51°14.826 2°48.864 17.6076 0.057784 0.360868 -2.871232
2007-02-15 15:14:45 51°14.824 2°49.212 17.6059 0.057784 0.360901 -2.871232
2007-02-15 15:15:45 51°14.822 2°49.56 17.6176 0.057784 0.360943 -2.871232
2007-02-15 15:16:45 51°14.819 2°49.907 17.5946 0.057784 0.360977 -2.871232
2007-02-15 15:17:44 51°14.817 2°50.247 17.6476 0.057784 0.36101 -2.871232
2007-02-15 15:18:45 51°14.813 2°50.596 17.6268 0.057784 0.361052 -2.871232
2007-02-15 15:19:45 51°14.807 2°50.936 17.6446 0.057784 0.361094 -2.871232
2007-02-15 15:20:45 51°14.804 2°51.273 17.6546 0.057681 0.360462 -2.871232
2007-02-15 15:21:45 51°14.803 2°51.614 17.6525 0.057784 0.36117 -2.871232
2007-02-15 15:22:45 51°14.802 2°51.957 17.6599 0.057681 0.360538 -2.871232
2007-02-15 15:23:45 51°14.796 2°52.3 17.6715 0.057681 0.360571 -2.871232
2007-02-15 15:24:45 51°14.782 2°52.642 17.6718 0.057681 0.360605 -2.871232
2007-02-15 15:25:45 51°14.766 2°52.984 17.6509 0.057681 0.360647 -2.871232
2007-02-15 15:26:45 51°14.741 2°53.322 17.6736 0.057681 0.36068 -2.871232
2007-02-15 15:27:45 51°14.705 2°53.668 17.6944 0.057681 0.360714 -2.871232
2007-02-15 15:28:45 51°14.659 2°54.009 17.6804 0.057681 0.360747 -2.871232
2007-02-15 15:29:45 51°14.606 2°54.345 17.6935 0.057681 0.360789 -2.871232
2007-02-15 15:30:45 51°14.529 2°54.666 17.6746 0.057681 0.360814 -2.871232
2007-02-15 15:31:45 51°14.419 2°54.963 17.6896 0.057681 0.360848 -2.871232
2007-02-15 15:32:45 51°14.283 2°55.228 17.7103 0.057681 0.36089 -2.871232
2007-02-15 15:33:46 51°14.131 2°55.415 17.7406 0.057681 0.360923 -2.871232
2007-02-15 15:34:45 51°14.014 2°55.496 17.7441 0.057681 0.360948 -2.871232
2007-02-15 15:35:45 51°13.883 2°55.581 17.7411 0.057681 0.360982 -2.871232
2007-02-15 15:36:45 51°13.764 2°55.693 17.7512 0.057681 0.360999 -2.871232
2007-02-15 15:37:45 51°13.691 2°55.818 17.7535 0.057681 0.361016 -2.871232
2007-02-15 15:38:45 51°13.65 2°55.91 17.7751 0.057681 0.361032 -2.871232
2007-02-15 15:39:45 51°13.617 2°55.998 17.7712 0.057681 0.361049 -2.871232
2007-02-15 15:40:45 51°13.6 2°56.078 17.801 0.057681 0.361074 -2.871232
2007-02-15 15:41:45 51°13.6 2°56.089 17.7941 0.057681 0.361083 -2.871232